Time;durP1;ratioP1;P1;durP2;ratioP2;P2;SDS_P1;SDS_P2;PMS_P1;PMS_P2;Temp;Humidity;BMP_temperature;BMP_pressure;BME280_temperature;BME280_humidity;BME280_pressure;Samples;Min_cycle;Max_cycle;Signal;HPM_P1;HPM_P2
2022/04/02 00:00:33;;;;;;;;;;;;;;;10.79;66.92;93708.22;5117134;27;948;-52
2022/04/02 00:02:59;;;;;;;;;;;;;;;10.77;65.51;93709.44;5117137;28;1051;-52
2022/04/02 00:05:27;;;;;;;;;;;;;;;10.83;65.46;93712.16;5117020;28;1035;-51
2022/04/02 00:07:53;;;;;;;;;;;;;;;10.86;65.42;93718.97;5116623;28;1824;-52
2022/04/02 00:10:19;;;;;;;;;;;;;;;10.84;65.10;93721.00;5117257;28;1119;-52
2022/04/02 00:12:45;;;;;;;;;;;;;;;10.86;65.74;93726.97;5116258;28;1984;-51
2022/04/02 00:15:11;;;;;;;;;;;;;;;10.84;66.21;93731.69;5117324;28;973;-52
2022/04/02 00:17:37;;;;;;;;;;;;;;;10.83;65.30;93732.72;5116762;28;1038;-52
2022/04/02 00:20:04;;;;;;;;;;;;;;;10.86;66.18;93726.97;5116909;28;1027;-52
2022/04/02 00:22:30;;;;;;;;;;;;;;;10.81;65.23;93730.22;5116528;28;1067;-52
2022/04/02 00:24:57;;;;;;;;;;;;;;;10.74;66.74;93740.91;5116836;28;1087;-52
2022/04/02 00:27:23;;;;;;;;;;;;;;;10.60;67.51;93738.34;5116809;28;980;-52
2022/04/02 00:29:49;;;;;;;;;;;;;;;10.52;67.71;93733.97;5116486;28;956;-51
2022/04/02 00:32:15;;;;;;;;;;;;;;;10.61;67.06;93737.31;5116507;28;1099;-52
2022/04/02 00:34:41;;;;;;;;;;;;;;;10.68;66.29;93735.50;5116216;28;1906;-52
2022/04/02 00:37:07;;;;;;;;;;;;;;;10.62;65.57;93728.28;5116479;28;971;-52
2022/04/02 00:39:33;;;;;;;;;;;;;;;10.57;67.05;93717.34;5116279;28;1059;-52
2022/04/02 00:41:59;;;;;;;;;;;;;;;10.43;66.81;93717.25;5116081;28;1103;-52
2022/04/02 00:44:26;;;;;;;;;;;;;;;10.42;66.95;93723.63;5116372;28;1023;-52
2022/04/02 00:46:52;;;;;;;;;;;;;;;10.45;67.58;93725.06;5115677;28;1083;-51
2022/04/02 00:49:19;;;;;;;;;;;;;;;10.44;67.89;93716.25;5116005;28;948;-52
2022/04/02 00:51:46;;;;;;;;;;;;;;;10.46;64.47;93714.19;5116183;28;1160;-52
2022/04/02 00:54:13;;;;;;;;;;;;;;;10.64;62.19;93724.41;5116148;28;1982;-52
2022/04/02 00:56:39;;;;;;;;;;;;;;;10.72;62.44;93710.06;5116368;28;1058;-52
2022/04/02 00:59:05;;;;;;;;;;;;;;;10.72;62.98;93704.72;5115776;27;1040;-52
2022/04/02 01:01:31;;;;;;;;;;;;;;;10.67;63.06;93715.97;5115961;28;1012;-52
2022/04/02 01:04:00;;;;;;;;;;;;;;;10.64;63.70;93724.41;5115810;28;1019;-52
2022/04/02 01:06:27;;;;;;;;;;;;;;;10.65;63.63;93727.88;5116036;28;967;-52
2022/04/02 01:08:53;;;;;;;;;;;;;;;10.66;63.90;93734.88;5115512;28;1094;-52
2022/04/02 01:11:19;;;;;;;;;;;;;;;10.62;64.50;93737.09;5115932;27;1128;-52
2022/04/02 01:13:46;;;;;;;;;;;;;;;10.68;64.16;93741.69;5115070;28;1906;-52
2022/04/02 01:16:12;;;;;;;;;;;;;;;10.63;63.80;93738.78;5115952;28;1048;-52
2022/04/02 01:18:38;;;;;;;;;;;;;;;10.53;63.85;93743.66;5115715;27;975;-51
2022/04/02 01:21:04;;;;;;;;;;;;;;;10.47;64.21;93737.25;5115700;28;1026;-52
2022/04/02 01:23:30;;;;;;;;;;;;;;;10.43;64.64;93748.50;5115437;28;1037;-52
2022/04/02 01:25:57;;;;;;;;;;;;;;;10.37;64.75;93742.06;5115682;28;1003;-52
2022/04/02 01:28:24;;;;;;;;;;;;;;;10.31;64.25;93738.34;5115709;28;960;-52
2022/04/02 01:30:50;;;;;;;;;;;;;;;10.35;65.01;93744.13;5115669;27;1111;-52
2022/04/02 01:33:16;;;;;;;;;;;;;;;10.31;63.66;93735.66;5115471;28;1906;-52
2022/04/02 01:35:42;;;;;;;;;;;;;;;10.34;64.94;93737.16;5115009;28;1044;-52
2022/04/02 01:38:08;;;;;;;;;;;;;;;10.38;63.51;93737.56;5114236;28;1051;-52
2022/04/02 01:40:34;;;;;;;;;;;;;;;10.43;64.43;93748.50;5115305;28;1041;-52
2022/04/02 01:43:00;;;;;;;;;;;;;;;10.33;64.55;93755.00;5114886;28;1119;-52
2022/04/02 01:45:26;;;;;;;;;;;;;;;10.30;64.72;93754.53;5115208;28;980;-52
2022/04/02 01:47:53;;;;;;;;;;;;;;;10.28;64.43;93757.41;5114792;28;1038;-52
2022/04/02 01:50:19;;;;;;;;;;;;;;;10.25;64.21;93760.47;5115154;27;1007;-52
2022/04/02 01:52:45;;;;;;;;;;;;;;;10.27;64.04;93763.75;5114961;28;1996;-52
2022/04/02 01:55:11;;;;;;;;;;;;;;;10.17;64.29;93755.25;5114863;28;1038;-52
2022/04/02 01:57:37;;;;;;;;;;;;;;;10.17;64.67;93757.94;5114101;28;945;-51
2022/04/02 02:00:05;;;;;;;;;;;;;;;10.25;64.66;93771.16;5114631;28;1117;-51
2022/04/02 02:02:31;;;;;;;;;;;;;;;10.34;64.10;93771.88;5115012;28;992;-52
2022/04/02 02:04:57;;;;;;;;;;;;;;;10.26;64.39;93763.94;5114768;28;1030;-52
2022/04/02 02:07:23;;;;;;;;;;;;;;;10.19;65.06;93765.72;5114618;28;1071;-52
2022/04/02 02:09:49;;;;;;;;;;;;;;;10.27;64.44;93766.44;5114587;28;969;-52
2022/04/02 02:12:15;;;;;;;;;;;;;;;10.24;65.15;93777.50;5114368;28;1076;-52
2022/04/02 02:14:41;;;;;;;;;;;;;;;10.21;64.74;93775.22;5114675;28;1983;-52
2022/04/02 02:17:07;;;;;;;;;;;;;;;10.17;65.89;93773.97;5114415;28;965;-52
2022/04/02 02:19:33;;;;;;;;;;;;;;;10.14;64.81;93763.66;5114534;28;964;-52
2022/04/02 02:22:00;;;;;;;;;;;;;;;10.09;65.73;93777.59;5114163;28;1024;-52
2022/04/02 02:24:26;;;;;;;;;;;;;;;10.05;66.64;93786.16;5114196;28;1063;-52
2022/04/02 02:26:53;;;;;;;;;;;;;;;9.85;67.37;93786.81;5114263;28;1007;-52
2022/04/02 02:29:19;;;;;;;;;;;;;;;9.71;68.17;93803.69;5114504;28;956;-52
2022/04/02 02:31:45;;;;;;;;;;;;;;;9.52;69.35;93800.63;5113984;28;1000;-52
2022/04/02 02:36:56;;;;;;;;;;;;;;;9.32;70.47;93805.69;5114298;28;960;-51
2022/04/02 02:39:22;;;;;;;;;;;;;;;9.45;69.43;93814.91;5114073;28;1071;-51
2022/04/02 02:41:48;;;;;;;;;;;;;;;9.57;67.95;93816.88;5114010;27;960;-51
2022/04/02 02:44:14;;;;;;;;;;;;;;;9.70;67.56;93818.06;5113970;28;1018;-51
2022/04/02 02:46:40;;;;;;;;;;;;;;;9.73;67.38;93823.84;5114145;28;1000;-50
2022/04/02 02:49:06;;;;;;;;;;;;;;;9.76;67.46;93830.63;5114252;28;956;-51
2022/04/02 02:51:32;;;;;;;;;;;;;;;9.74;66.83;93822.00;5113554;28;1951;-51
2022/04/02 02:53:58;;;;;;;;;;;;;;;9.81;66.59;93819.38;5113814;28;1910;-51
2022/04/02 02:56:24;;;;;;;;;;;;;;;9.92;65.95;93834.91;5113618;28;1111;-51
2022/04/02 02:58:50;;;;;;;;;;;;;;;9.95;65.81;93838.03;5114133;28;965;-51
2022/04/02 03:01:16;;;;;;;;;;;;;;;10.04;65.49;93835.25;5113585;28;1028;-51
2022/04/02 03:03:42;;;;;;;;;;;;;;;10.13;65.40;93834.94;5114012;28;964;-51
2022/04/02 03:06:08;;;;;;;;;;;;;;;10.04;65.48;93825.41;5113423;28;1865;-51
2022/04/02 03:08:34;;;;;;;;;;;;;;;9.92;66.47;93826.91;5113524;28;948;-51
2022/04/02 03:11:00;;;;;;;;;;;;;;;9.79;67.21;93827.59;5113664;28;1023;-51
2022/04/02 03:13:27;;;;;;;;;;;;;;;9.73;67.19;93836.34;5113245;28;1987;-51
2022/04/02 03:15:53;;;;;;;;;;;;;;;9.37;69.55;93843.31;5113334;28;1031;-51
2022/04/02 03:18:19;;;;;;;;;;;;;;;9.01;70.53;93845.91;5113767;28;952;-51
2022/04/02 03:20:45;;;;;;;;;;;;;;;8.68;71.68;93840.91;5113405;28;1004;-51
2022/04/02 03:23:11;;;;;;;;;;;;;;;8.67;73.01;93843.75;5113702;28;955;-51
2022/04/02 03:25:37;;;;;;;;;;;;;;;8.61;73.68;93850.63;5113648;28;965;-52
2022/04/02 03:28:04;;;;;;;;;;;;;;;8.48;74.21;93843.28;5113386;28;1132;-52
2022/04/02 03:30:30;;;;;;;;;;;;;;;8.46;74.87;93837.28;5113628;28;961;-52
2022/04/02 03:32:57;;;;;;;;;;;;;;;8.34;74.67;93842.16;5113595;28;1913;-51
2022/04/02 03:35:23;;;;;;;;;;;;;;;8.40;73.94;93833.47;5113267;28;1990;-51
2022/04/02 03:37:50;;;;;;;;;;;;;;;8.74;71.51;93828.69;5113364;28;968;-51
2022/04/02 03:40:17;;;;;;;;;;;;;;;9.05;70.22;93827.69;5113460;28;1855;-51
2022/04/02 03:42:44;;;;;;;;;;;;;;;9.17;69.65;93835.03;5111749;28;1008;-51
2022/04/02 03:45:12;;;;;;;;;;;;;;;9.24;68.30;93835.16;5113285;28;1133;-51
2022/04/02 03:47:38;;;;;;;;;;;;;;;9.33;68.23;93836.72;5113374;28;1015;-51
2022/04/02 03:50:04;;;;;;;;;;;;;;;9.40;67.43;93844.78;5113336;28;1035;-51
2022/04/02 03:52:31;;;;;;;;;;;;;;;9.44;67.50;93845.25;5113006;28;1995;-51
2022/04/02 03:54:57;;;;;;;;;;;;;;;9.38;67.75;93844.13;5113210;28;1131;-51
2022/04/02 03:57:23;;;;;;;;;;;;;;;9.41;67.84;93853.59;5112079;28;1032;-51
2022/04/02 03:59:49;;;;;;;;;;;;;;;9.43;68.19;93851.56;5113095;28;1024;-52
2022/04/02 04:02:15;;;;;;;;;;;;;;;9.23;68.75;93862.00;5113009;28;1871;-52
2022/04/02 04:04:41;;;;;;;;;;;;;;;9.10;67.89;93851.97;5113244;28;1007;-51
2022/04/02 04:07:08;;;;;;;;;;;;;;;9.17;68.60;93855.56;5112885;28;1012;-51
2022/04/02 04:09:34;;;;;;;;;;;;;;;9.15;69.03;93857.59;5113177;28;923;-51
2022/04/02 04:12:00;;;;;;;;;;;;;;;8.68;70.71;93864.06;5112554;28;1112;-53
2022/04/02 04:14:26;;;;;;;;;;;;;;;8.31;72.52;93871.84;5113268;28;1929;-51
2022/04/02 04:16:53;;;;;;;;;;;;;;;8.27;73.07;93881.19;5113013;28;1031;-51
2022/04/02 04:19:19;;;;;;;;;;;;;;;8.48;72.77;93879.72;5113159;28;987;-51
2022/04/02 04:21:45;;;;;;;;;;;;;;;8.43;72.71;93879.44;5115577;28;1876;-51
2022/04/02 04:24:11;;;;;;;;;;;;;;;8.27;73.59;93896.31;5116810;28;1067;-51
2022/04/02 04:26:38;;;;;;;;;;;;;;;7.97;75.05;93894.38;5116570;28;1039;-51
2022/04/02 04:29:04;;;;;;;;;;;;;;;7.71;75.99;93893.84;5116542;28;1040;-51
2022/04/02 04:31:30;;;;;;;;;;;;;;;7.68;75.82;93902.16;5116630;27;1027;-51
2022/04/02 04:33:56;;;;;;;;;;;;;;;7.67;75.62;93897.88;5116459;28;1913;-52
2022/04/02 04:36:23;;;;;;;;;;;;;;;8.16;74.40;93903.72;5116677;28;1031;-52
2022/04/02 04:38:49;;;;;;;;;;;;;;;9.10;71.08;93906.13;5116385;27;996;-51
2022/04/02 04:41:17;;;;;;;;;;;;;;;9.72;68.70;93896.91;5116368;28;1024;-52
2022/04/02 04:43:44;;;;;;;;;;;;;;;9.49;69.52;93904.22;5115988;28;1866;-52
2022/04/02 04:46:10;;;;;;;;;;;;;;;9.27;70.03;93893.44;5116227;28;1083;-52
2022/04/02 04:48:36;;;;;;;;;;;;;;;9.06;70.80;93891.50;5115976;28;1191;-52
2022/04/02 04:51:02;;;;;;;;;;;;;;;8.92;71.59;93879.00;5116362;28;1165;-51
2022/04/02 04:53:29;;;;;;;;;;;;;;;8.81;71.72;93885.59;5115947;28;1910;-52
2022/04/02 04:55:54;;;;;;;;;;;;;;;8.67;73.02;93881.03;5115995;28;1086;-51
2022/04/02 04:58:21;;;;;;;;;;;;;;;8.96;71.54;93890.94;5116140;28;968;-51
2022/04/02 05:00:47;;;;;;;;;;;;;;;9.08;71.55;93876.13;5116237;28;968;-51
2022/04/02 05:03:13;;;;;;;;;;;;;;;9.36;71.34;93888.84;5116090;28;968;-51
2022/04/02 05:05:39;;;;;;;;;;;;;;;9.70;69.98;93874.91;5116129;28;1039;-51
2022/04/02 05:08:06;;;;;;;;;;;;;;;10.08;68.44;93876.59;5115581;28;1036;-51
2022/04/02 05:10:32;;;;;;;;;;;;;;;10.11;68.04;93857.50;5115858;28;1031;-52
2022/04/02 05:12:58;;;;;;;;;;;;;;;10.21;68.32;93865.22;5115092;28;1917;-51
2022/04/02 05:15:24;;;;;;;;;;;;;;;10.60;66.92;93878.13;5116031;28;1039;-51
2022/04/02 05:17:50;;;;;;;;;;;;;;;10.89;64.93;93890.53;5115597;28;1023;-51
2022/04/02 05:20:17;;;;;;;;;;;;;;;11.26;62.34;93872.44;5115836;28;984;-51
2022/04/02 05:22:43;;;;;;;;;;;;;;;11.86;59.15;93882.66;5115419;28;1000;-51
2022/04/02 05:25:14;;;;;;;;;;;;;;;12.30;56.60;93878.69;5115532;28;1003;-52
2022/04/02 05:27:40;;;;;;;;;;;;;;;12.49;57.35;93896.66;5115344;28;1103;-51
2022/04/02 05:30:07;;;;;;;;;;;;;;;12.69;54.58;93880.63;5115321;28;1103;-51
2022/04/02 05:32:33;;;;;;;;;;;;;;;13.03;54.69;93884.13;5115152;28;1910;-52
2022/04/02 05:34:59;;;;;;;;;;;;;;;13.50;52.43;93894.00;5115118;28;1004;-51
2022/04/02 05:37:25;;;;;;;;;;;;;;;13.79;52.96;93904.28;5115366;28;1059;-52
2022/04/02 05:39:52;;;;;;;;;;;;;;;13.76;56.88;93914.63;5115435;28;960;-52
2022/04/02 05:42:18;;;;;;;;;;;;;;;13.69;52.99;93913.81;5115217;28;1144;-52
2022/04/02 05:44:44;;;;;;;;;;;;;;;13.89;51.37;93914.56;5115233;28;955;-52
2022/04/02 05:47:10;;;;;;;;;;;;;;;14.16;50.97;93904.53;5115027;28;1040;-52
2022/04/02 05:49:36;;;;;;;;;;;;;;;14.44;50.97;93903.38;5114961;28;948;-52
2022/04/02 05:52:04;;;;;;;;;;;;;;;14.57;50.23;93921.31;5114926;28;1196;-51
2022/04/02 05:54:30;;;;;;;;;;;;;;;14.64;49.55;93928.34;5114605;28;2052;-51
2022/04/02 05:56:57;;;;;;;;;;;;;;;14.60;49.57;93919.03;5115140;28;1008;-52
2022/04/02 05:59:23;;;;;;;;;;;;;;;14.87;48.54;93916.16;5115055;28;1030;-51
2022/04/02 06:01:50;;;;;;;;;;;;;;;15.21;48.13;93919.44;5114711;28;1028;-52
2022/04/02 06:04:17;;;;;;;;;;;;;;;15.34;46.74;93916.63;5114522;28;1036;-52
2022/04/02 06:06:43;;;;;;;;;;;;;;;15.61;45.75;93914.53;5115031;28;1027;-52
2022/04/02 06:09:11;;;;;;;;;;;;;;;15.66;45.79;93913.84;5114362;28;1052;-52
2022/04/02 06:11:38;;;;;;;;;;;;;;;15.93;44.89;93910.91;5115011;28;983;-51
2022/04/02 06:14:04;;;;;;;;;;;;;;;16.07;44.41;93907.03;5114199;27;1918;-51
2022/04/02 06:16:30;;;;;;;;;;;;;;;16.34;43.08;93901.31;5114677;28;973;-52
2022/04/02 06:18:56;;;;;;;;;;;;;;;16.64;43.94;93897.78;5114425;28;980;-51
2022/04/02 06:21:21;;;;;;;;;;;;;;;16.91;42.58;93909.88;5114524;28;1031;-52
2022/04/02 06:23:47;;;;;;;;;;;;;;;17.12;42.28;93896.91;5114025;28;960;-51
2022/04/02 06:26:13;;;;;;;;;;;;;;;17.38;40.88;93901.06;5114638;28;1225;-52
2022/04/02 06:28:40;;;;;;;;;;;;;;;17.85;41.91;93887.56;5114130;28;1080;-51
2022/04/02 06:31:08;;;;;;;;;;;;;;;18.45;45.86;93896.38;5114203;28;1095;-52
2022/04/02 06:33:34;;;;;;;;;;;;;;;19.15;41.66;93906.09;5113889;28;1930;-52
2022/04/02 06:36:00;;;;;;;;;;;;;;;20.61;38.21;93901.47;5114148;28;1068;-52
2022/04/02 06:38:26;;;;;;;;;;;;;;;22.01;32.51;93907.91;5114308;28;1028;-52
2022/04/02 06:40:53;;;;;;;;;;;;;;;23.28;31.42;93903.28;5114012;28;1028;-53
2022/04/02 06:43:19;;;;;;;;;;;;;;;25.67;29.66;93910.22;5113614;28;965;-50
2022/04/02 06:45:45;;;;;;;;;;;;;;;23.73;30.35;93895.34;5113800;28;1107;-52
2022/04/02 06:48:13;;;;;;;;;;;;;;;27.60;26.02;93901.22;5113863;28;1771;-52
2022/04/02 06:50:43;;;;;;;;;;;;;;;25.65;27.00;93906.13;5114212;28;1149;-52
2022/04/02 06:53:09;;;;;;;;;;;;;;;20.85;36.17;93896.56;5113691;28;1914;-51
2022/04/02 06:55:35;;;;;;;;;;;;;;;20.40;39.49;93894.94;5113700;28;1039;-50
2022/04/02 06:58:02;;;;;;;;;;;;;;;21.31;39.84;93908.97;5113971;28;1043;-50
2022/04/02 07:00:27;;;;;;;;;;;;;;;21.81;35.38;93896.88;5113655;28;1024;-50
2022/04/02 07:02:54;;;;;;;;;;;;;;;25.50;30.26;93913.38;5113928;28;955;-50
2022/04/02 07:05:20;;;;;;;;;;;;;;;29.82;23.91;93918.69;5113560;28;1093;-51
2022/04/02 07:07:46;;;;;;;;;;;;;;;32.23;20.55;93917.44;5113501;28;1075;-50
2022/04/02 07:10:13;;;;;;;;;;;;;;;33.18;18.51;93898.94;5112518;28;1004;-51
2022/04/02 07:12:39;;;;;;;;;;;;;;;33.37;18.67;93919.81;5113479;28;1917;-50
2022/04/02 07:15:06;;;;;;;;;;;;;;;30.74;21.62;93927.38;5113552;28;972;-50
2022/04/02 07:17:34;;;;;;;;;;;;;;;31.96;20.04;93926.84;5113456;28;947;-51
2022/04/02 07:20:00;;;;;;;;;;;;;;;32.65;19.55;93933.47;5113411;28;1015;-50
2022/04/02 07:22:27;;;;;;;;;;;;;;;34.45;16.36;93933.00;5113543;28;976;-50
2022/04/02 07:24:54;;;;;;;;;;;;;;;33.08;17.43;93911.13;5113277;28;1012;-50
2022/04/02 07:27:24;;;;;;;;;;;;;;;31.17;19.17;93909.41;5113501;28;1060;-51
2022/04/02 07:29:54;;;;;;;;;;;;;;;27.50;23.45;93895.91;5113434;28;976;-58
2022/04/02 07:32:20;;;;;;;;;;;;;;;31.43;20.62;93892.03;5113654;28;1039;-50
2022/04/02 07:34:46;;;;;;;;;;;;;;;33.42;17.92;93892.72;5113044;28;1984;-50
2022/04/02 07:37:12;;;;;;;;;;;;;;;32.69;18.26;93890.19;5113659;28;963;-51
2022/04/02 07:39:53;;;;;;;;;;;;;;;34.89;16.24;93900.06;5113587;28;1262;-50
2022/04/02 07:42:36;;;;;;;;;;;;;;;31.73;18.73;93897.78;5113412;28;1066;-50
2022/04/02 07:45:09;;;;;;;;;;;;;;;27.91;21.86;93890.59;5113504;28;1031;-49
2022/04/02 07:47:37;;;;;;;;;;;;;;;30.38;20.13;93891.69;5113194;28;1272;-49
2022/04/02 07:50:05;;;;;;;;;;;;;;;27.38;23.33;93891.66;5113060;28;1855;-48
2022/04/02 07:52:32;;;;;;;;;;;;;;;26.57;24.38;93893.50;5113227;28;1153;-49
2022/04/02 07:54:58;;;;;;;;;;;;;;;26.47;23.39;93876.06;5113192;28;1933;-49
2022/04/02 07:57:32;;;;;;;;;;;;;;;26.19;24.52;93874.19;5117247;28;1000;-48
2022/04/02 08:00:00;;;;;;;;;;;;;;;25.93;25.02;93865.41;5116955;27;1008;-48
2022/04/02 08:02:39;;;;;;;;;;;;;;;25.55;24.95;93865.16;5117304;28;1035;-48
2022/04/02 08:05:12;;;;;;;;;;;;;;;25.12;25.77;93871.19;5117206;28;1191;-48
2022/04/02 08:07:39;;;;;;;;;;;;;;;25.54;27.53;93866.28;5117024;28;1078;-49
2022/04/02 08:10:06;;;;;;;;;;;;;;;24.51;26.73;93861.34;5116797;28;900;-48
2022/04/02 08:12:33;;;;;;;;;;;;;;;24.93;26.08;93854.63;5116560;28;1108;-49
2022/04/02 08:15:01;;;;;;;;;;;;;;;25.27;26.10;93862.09;5116986;28;1983;-48
2022/04/02 08:17:27;;;;;;;;;;;;;;;25.06;25.88;93862.22;5116978;28;1039;-49
2022/04/02 08:19:53;;;;;;;;;;;;;;;23.04;28.75;93870.25;5117018;28;1019;-49
2022/04/02 08:22:19;;;;;;;;;;;;;;;20.95;32.47;93854.28;5116840;28;1027;-48
2022/04/02 08:24:45;;;;;;;;;;;;;;;21.33;30.14;93866.03;5116625;28;1040;-49
2022/04/02 08:27:23;;;;;;;;;;;;;;;22.78;29.21;93869.31;5116430;28;976;-48
2022/04/02 08:29:56;;;;;;;;;;;;;;;24.26;26.87;93871.28;5116795;28;971;-49
2022/04/02 08:32:28;;;;;;;;;;;;;;;22.76;28.48;93879.69;5116728;28;1005;-48
2022/04/02 08:35:01;;;;;;;;;;;;;;;23.97;29.12;93888.28;5116352;28;2002;-48
2022/04/02 08:37:29;;;;;;;;;;;;;;;24.23;27.13;93873.75;5116698;28;983;-50
2022/04/02 08:40:21;;;;;;;;;;;;;;;24.29;26.09;93873.47;5116571;28;1000;-50
2022/04/02 08:43:07;;;;;;;;;;;;;;;23.61;26.91;93868.38;5092292;28;1134;-48
2022/04/02 08:45:34;;;;;;;;;;;;;;;23.05;29.42;93863.72;5084703;28;1173;-48
2022/04/02 08:48:00;;;;;;;;;;;;;;;23.08;29.51;93871.34;5116014;28;1008;-48
2022/04/02 08:50:34;;;;;;;;;;;;;;;22.87;28.00;93875.09;5116051;28;1019;-48
2022/04/02 08:53:14;;;;;;;;;;;;;;;22.91;29.63;93887.88;5116256;28;1917;-48
2022/04/02 08:55:49;;;;;;;;;;;;;;;22.29;29.80;93896.91;5116267;28;1065;-50
2022/04/02 08:58:25;;;;;;;;;;;;;;;21.98;30.32;93878.47;5116433;28;976;-51
2022/04/02 09:01:00;;;;;;;;;;;;;;;21.54;31.82;93880.66;5115841;28;1051;-50
2022/04/02 09:03:44;;;;;;;;;;;;;;;21.43;33.74;93869.63;5116215;28;975;-51
2022/04/02 09:06:20;;;;;;;;;;;;;;;21.71;31.06;93875.88;5115400;28;1087;-48
2022/04/02 09:08:56;;;;;;;;;;;;;;;21.41;31.17;93860.94;5116113;28;1043;-49
2022/04/02 09:11:23;;;;;;;;;;;;;;;21.43;30.96;93856.03;5115851;28;1043;-50
2022/04/02 09:14:08;;;;;;;;;;;;;;;21.19;30.16;93857.47;5115220;28;2043;-49
2022/04/02 09:16:33;;;;;;;;;;;;;;;20.02;32.12;93871.38;5115632;28;1120;-49
2022/04/02 09:19:14;;;;;;;;;;;;;;;20.67;31.36;93872.47;5115568;28;1088;-51
2022/04/02 09:21:43;;;;;;;;;;;;;;;20.82;32.77;93880.78;5115440;28;1056;-50
2022/04/02 09:24:13;;;;;;;;;;;;;;;21.09;32.80;93873.69;5115475;28;1008;-50
2022/04/02 09:26:39;;;;;;;;;;;;;;;21.15;32.07;93883.53;5115617;28;1032;-51
2022/04/02 09:29:15;;;;;;;;;;;;;;;21.56;32.74;93889.34;5115896;28;1039;-51
2022/04/02 09:32:00;;;;;;;;;;;;;;;21.75;31.15;93903.38;5115325;28;1043;-52
2022/04/02 09:34:26;;;;;;;;;;;;;;;22.34;32.75;93895.03;5115499;28;1914;-51
2022/04/02 09:36:59;;;;;;;;;;;;;;;22.25;31.02;93902.06;5115350;28;991;-50
2022/04/02 09:39:37;;;;;;;;;;;;;;;22.28;30.94;93896.09;5115482;28;1055;-52
2022/04/02 09:42:20;;;;;;;;;;;;;;;22.23;29.90;93887.88;5114787;28;1032;-51
2022/04/02 09:44:58;;;;;;;;;;;;;;;22.52;31.43;93884.75;5113578;28;1259;-51
2022/04/02 09:47:33;;;;;;;;;;;;;;;22.47;30.00;93877.41;5114310;28;1145;-50
2022/04/02 09:50:07;;;;;;;;;;;;;;;22.75;31.21;93881.59;5115211;28;1082;-49
2022/04/02 09:52:35;;;;;;;;;;;;;;;22.69;29.14;93896.28;5114912;28;1201;-49
2022/04/02 09:55:10;;;;;;;;;;;;;;;22.57;30.25;93879.34;5114785;28;1976;-49
2022/04/02 09:57:45;;;;;;;;;;;;;;;21.85;31.00;93876.22;5114856;28;956;-48
2022/04/02 10:00:13;;;;;;;;;;;;;;;20.98;32.69;93872.78;5114903;28;1144;-49
2022/04/02 10:02:42;;;;;;;;;;;;;;;21.01;32.70;93883.94;5114893;27;1089;-48
2022/04/02 10:05:12;;;;;;;;;;;;;;;21.58;30.04;93871.69;5115125;28;1030;-49
2022/04/02 10:07:47;;;;;;;;;;;;;;;22.03;30.96;93866.81;5114422;28;1077;-49
2022/04/02 10:10:14;;;;;;;;;;;;;;;22.02;31.01;93857.00;5115110;28;975;-49
2022/04/02 10:12:45;;;;;;;;;;;;;;;21.93;32.18;93847.69;5114195;28;1084;-49
2022/04/02 10:15:11;;;;;;;;;;;;;;;21.83;30.03;93862.06;5114637;28;944;-50
2022/04/02 10:17:39;;;;;;;;;;;;;;;21.66;30.61;93856.78;5113958;28;1073;-48
2022/04/02 10:20:06;;;;;;;;;;;;;;;21.77;29.15;93828.56;5114410;28;1039;-49
2022/04/02 10:22:36;;;;;;;;;;;;;;;21.59;29.38;93823.59;5114388;28;1940;-51
2022/04/02 10:25:06;;;;;;;;;;;;;;;21.77;30.17;93816.88;5114634;28;1014;-50
2022/04/02 10:27:35;;;;;;;;;;;;;;;21.83;29.22;93813.94;5114294;28;1081;-50
2022/04/02 10:30:07;;;;;;;;;;;;;;;22.06;30.59;93827.38;5114508;28;1008;-50
2022/04/02 10:32:34;;;;;;;;;;;;;;;21.58;29.56;93816.50;5114190;27;1047;-50
2022/04/02 10:35:07;;;;;;;;;;;;;;;21.54;29.84;93812.66;5114419;28;1983;-49
2022/04/02 10:37:43;;;;;;;;;;;;;;;21.22;30.38;93832.50;5113857;28;1083;-49
2022/04/02 10:40:16;;;;;;;;;;;;;;;20.39;32.59;93844.41;5114412;28;1004;-51
2022/04/02 10:42:49;;;;;;;;;;;;;;;20.16;33.52;93839.28;5113934;28;976;-51
2022/04/02 10:45:17;;;;;;;;;;;;;;;20.48;35.48;93825.81;5114048;28;1104;-49
2022/04/02 10:47:47;;;;;;;;;;;;;;;20.36;32.84;93820.53;5113959;28;1141;-50
2022/04/02 10:50:18;;;;;;;;;;;;;;;20.13;32.98;93820.78;5114092;28;1020;-49
2022/04/02 10:52:46;;;;;;;;;;;;;;;20.21;32.85;93801.34;5113990;28;2008;-51
2022/04/02 10:55:15;;;;;;;;;;;;;;;20.16;33.16;93801.28;5114069;28;1035;-50
2022/04/02 10:57:41;;;;;;;;;;;;;;;20.31;32.03;93787.88;5113515;28;1232;-51
2022/04/02 11:00:08;;;;;;;;;;;;;;;20.24;32.24;93782.69;5113943;28;1039;-51
2022/04/02 11:02:41;;;;;;;;;;;;;;;19.86;33.42;93797.13;5113929;28;912;-51
2022/04/02 11:05:09;;;;;;;;;;;;;;;19.40;32.77;93810.00;5112817;28;996;-49
2022/04/02 11:07:43;;;;;;;;;;;;;;;19.20;34.26;93802.38;5112751;28;1007;-49
2022/04/02 11:10:13;;;;;;;;;;;;;;;19.14;34.49;93841.31;5113856;28;988;-50
2022/04/02 11:12:44;;;;;;;;;;;;;;;19.05;36.13;93840.91;5113455;28;1320;-50
2022/04/02 11:15:20;;;;;;;;;;;;;;;18.88;35.73;93841.72;5113726;28;1020;-49
2022/04/02 11:17:47;;;;;;;;;;;;;;;18.16;35.60;93869.28;5113532;28;1095;-49
2022/04/02 11:20:14;;;;;;;;;;;;;;;17.70;38.13;93904.22;5113829;28;1015;-48
2022/04/02 11:22:43;;;;;;;;;;;;;;;16.93;42.05;93933.94;5113611;28;1039;-49
2022/04/02 11:25:24;;;;;;;;;;;;;;;16.39;45.04;93931.13;5113795;28;965;-49
2022/04/02 11:28:00;;;;;;;;;;;;;;;16.11;45.61;93872.34;5113483;28;1051;-49
2022/04/02 11:30:30;;;;;;;;;;;;;;;16.14;46.69;93851.16;5116299;28;1027;-48
2022/04/02 11:33:25;;;;;;;;;;;;;;;16.16;47.10;93832.88;5117542;28;1985;-49
2022/04/02 11:36:05;;;;;;;;;;;;;;;16.71;44.32;93833.75;5103535;28;1447;-49
2022/04/02 11:38:34;;;;;;;;;;;;;;;17.11;43.59;93838.53;5117664;28;1028;-49
2022/04/02 11:41:19;;;;;;;;;;;;;;;17.17;41.43;93833.03;5117705;28;1073;-49
2022/04/02 11:43:46;;;;;;;;;;;;;;;17.20;42.08;93839.03;5117186;28;1008;-49
2022/04/02 11:46:13;;;;;;;;;;;;;;;17.28;41.22;93830.56;5117859;28;1024;-48
2022/04/02 11:48:50;;;;;;;;;;;;;;;17.42;39.33;93836.56;5116131;28;1243;-49
2022/04/02 11:51:17;;;;;;;;;;;;;;;17.53;40.48;93809.53;5117413;28;1149;-49
2022/04/02 11:53:44;;;;;;;;;;;;;;;17.81;40.72;93804.44;5117375;28;1997;-49
2022/04/02 11:56:22;;;;;;;;;;;;;;;17.99;39.35;93795.38;5117427;28;956;-49
2022/04/02 11:58:48;;;;;;;;;;;;;;;18.02;39.05;93814.66;5117023;28;1066;-49
2022/04/02 12:01:14;;;;;;;;;;;;;;;18.10;39.69;93805.34;5117289;28;1024;-49
2022/04/02 12:03:41;;;;;;;;;;;;;;;18.24;37.69;93809.38;5117062;28;1035;-48
2022/04/02 12:06:11;;;;;;;;;;;;;;;18.04;37.93;93817.94;5117171;28;1036;-49
2022/04/02 12:08:38;;;;;;;;;;;;;;;17.92;37.41;93825.25;5117033;28;1027;-49
2022/04/02 12:11:08;;;;;;;;;;;;;;;17.61;36.99;93832.69;5115891;28;1141;-49
2022/04/02 12:13:35;;;;;;;;;;;;;;;17.50;36.24;93844.31;5116598;28;1975;-49
2022/04/02 12:16:08;;;;;;;;;;;;;;;17.35;37.26;93859.09;5117136;28;920;-50
2022/04/02 12:18:50;;;;;;;;;;;;;;;17.47;38.90;93872.63;5116890;28;1067;-50
2022/04/02 12:21:16;;;;;;;;;;;;;;;17.33;39.53;93869.31;5116913;28;1088;-50
2022/04/02 12:23:54;;;;;;;;;;;;;;;17.04;42.90;93891.84;5116664;28;1036;-50
2022/04/02 12:26:22;;;;;;;;;;;;;;;17.04;44.63;93889.16;5116903;28;1028;-50
2022/04/02 12:28:48;;;;;;;;;;;;;;;16.87;47.89;93862.81;5116602;28;1043;-50
2022/04/02 12:31:15;;;;;;;;;;;;;;;16.93;48.54;93874.56;5116888;28;1023;-50
2022/04/02 12:33:49;;;;;;;;;;;;;;;16.61;47.42;93855.09;5116500;28;1992;-50
2022/04/02 12:36:16;;;;;;;;;;;;;;;16.71;48.13;93841.84;5115766;28;1929;-49
2022/04/02 12:38:43;;;;;;;;;;;;;;;16.77;45.38;93840.94;5116704;28;968;-50
2022/04/02 12:41:20;;;;;;;;;;;;;;;16.84;44.70;93836.28;5114671;28;957;-50
2022/04/02 12:43:46;;;;;;;;;;;;;;;17.14;46.54;93827.28;5116069;28;1052;-50
2022/04/02 12:46:23;;;;;;;;;;;;;;;17.26;45.13;93824.56;5116497;28;1173;-50
2022/04/02 12:48:49;;;;;;;;;;;;;;;17.32;42.03;93819.06;5116364;28;1032;-51
2022/04/02 12:51:16;;;;;;;;;;;;;;;17.36;41.63;93814.03;5116532;28;1173;-50
2022/04/02 12:53:43;;;;;;;;;;;;;;;17.35;42.06;93796.97;5116179;28;2000;-50
2022/04/02 12:56:10;;;;;;;;;;;;;;;17.54;40.62;93811.16;5116481;28;1019;-50
2022/04/02 12:58:41;;;;;;;;;;;;;;;17.33;40.79;93793.69;5116133;28;1028;-50
2022/04/02 13:01:13;;;;;;;;;;;;;;;17.35;41.44;93804.25;5116127;28;952;-50
2022/04/02 13:03:59;;;;;;;;;;;;;;;17.48;39.46;93814.00;5116411;28;1039;-50
2022/04/02 13:06:26;;;;;;;;;;;;;;;17.54;39.07;93816.56;5102057;28;1988;-50
2022/04/02 13:08:59;;;;;;;;;;;;;;;17.35;38.03;93820.47;5116234;28;957;-50